createdAt,value
2022-12-14T05:04:24.788Z,18.70
2022-12-14T05:07:18.480Z,18.75
2022-12-14T05:10:07.281Z,18.83
2022-12-14T05:13:08.959Z,19.55
2022-12-14T05:15:44.200Z,18.73
2022-12-14T05:18:14.151Z,17.05
2022-12-14T05:20:41.442Z,19.15
2022-12-14T05:23:08.796Z,19.02
2022-12-14T05:25:36.163Z,18.42
2022-12-14T05:28:03.542Z,17.75
2022-12-14T05:30:31.156Z,18.73
2022-12-14T05:32:58.783Z,19.13
2022-12-14T05:35:26.219Z,18.92
2022-12-14T05:37:53.707Z,19.70
2022-12-14T05:40:21.123Z,19.02
2022-12-14T05:42:53.847Z,19.08
2022-12-14T05:45:22.811Z,19.58
2022-12-14T05:47:50.507Z,18.65
2022-12-14T05:50:17.978Z,20.00
2022-12-14T05:52:45.273Z,20.45
2022-12-14T05:55:12.585Z,19.30
2022-12-14T05:57:40.356Z,20.05
2022-12-14T06:00:09.375Z,19.60
2022-12-14T06:02:37.199Z,19.67
2022-12-14T06:05:04.767Z,19.65
2022-12-14T06:07:32.052Z,20.77
2022-12-14T06:09:59.657Z,20.92
2022-12-14T06:12:27.033Z,20.33
2022-12-14T06:14:54.692Z,21.50
2022-12-14T06:17:21.929Z,19.38
2022-12-14T06:19:50.196Z,19.75
2022-12-14T06:22:18.838Z,19.00
2022-12-14T06:24:46.156Z,18.60
2022-12-14T06:27:13.922Z,19.25
2022-12-14T06:29:41.332Z,17.98
2022-12-14T06:32:08.649Z,16.85
2022-12-14T06:34:39.249Z,16.98
2022-12-14T06:39:36.042Z,16.50
2022-12-14T06:42:03.495Z,15.57
2022-12-14T06:44:30.893Z,16.10
2022-12-14T06:46:58.301Z,15.73
2022-12-14T06:49:26.406Z,15.20
2022-12-14T06:51:53.683Z,17.08
2022-12-14T06:54:21.311Z,18.10
2022-12-14T06:56:48.711Z,16.63
2022-12-14T06:59:16.986Z,16.90
2022-12-14T07:01:46.093Z,13.82
2022-12-14T07:04:18.744Z,16.17
2022-12-14T07:06:46.452Z,17.88
2022-12-14T07:09:14.913Z,15.90
2022-12-14T07:11:42.161Z,17.00
2022-12-14T07:14:16.439Z,20.23
2022-12-14T07:16:47.813Z,22.70
2022-12-14T07:19:16.475Z,22.05
2022-12-14T07:21:43.809Z,20.73
2022-12-14T07:24:11.591Z,21.48
2022-12-14T07:26:38.935Z,20.23
2022-12-14T07:29:06.837Z,20.13
2022-12-14T07:31:34.734Z,20.63
2022-12-14T07:34:02.497Z,20.55
2022-12-14T07:36:30.672Z,21.63
2022-12-14T07:38:58.021Z,21.38
2022-12-14T07:41:31.090Z,20.17
2022-12-14T07:44:01.133Z,21.00
2022-12-14T07:46:32.321Z,24.05
2022-12-14T07:49:00.726Z,24.13
2022-12-14T07:51:34.210Z,25.48
2022-12-14T07:54:04.407Z,23.35
2022-12-14T07:56:35.003Z,24.55
2022-12-14T07:59:04.857Z,25.20
2022-12-14T08:01:34.401Z,26.30
2022-12-14T08:04:07.944Z,26.83
2022-12-14T08:06:37.218Z,26.60
2022-12-14T08:09:06.504Z,28.13
2022-12-14T08:11:34.263Z,23.80
2022-12-14T08:14:06.211Z,22.85
2022-12-14T08:19:02.372Z,18.73
2022-12-14T08:21:30.699Z,18.73
2022-12-14T08:23:58.056Z,18.25
2022-12-14T08:26:30.176Z,18.85
2022-12-14T08:29:01.591Z,18.75
2022-12-14T08:31:29.120Z,18.10
2022-12-14T08:33:59.107Z,18.10
2022-12-14T08:36:29.795Z,18.13
2022-12-14T08:39:02.941Z,17.98
2022-12-14T08:41:30.908Z,19.52
2022-12-14T08:44:00.227Z,18.70
2022-12-14T08:46:29.739Z,18.75
2022-12-14T08:48:58.529Z,18.73
2022-12-14T08:51:28.107Z,19.10
2022-12-14T08:53:56.795Z,18.80
2022-12-14T08:56:27.284Z,17.88
2022-12-14T08:58:55.803Z,19.90
2022-12-14T09:01:32.046Z,19.08
2022-12-14T09:04:08.693Z,18.17
2022-12-14T09:06:39.061Z,19.40
2022-12-14T09:09:13.659Z,17.83
2022-12-14T09:11:44.903Z,19.00
2022-12-14T09:14:12.363Z,19.05
2022-12-14T09:16:40.197Z,17.42
2022-12-14T09:19:07.725Z,18.10
2022-12-14T09:21:35.087Z,16.17
2022-12-14T09:24:03.425Z,17.35
2022-12-14T09:26:30.810Z,17.90
2022-12-14T09:28:58.490Z,16.70
2022-12-14T09:31:27.709Z,17.27
2022-12-14T09:33:55.540Z,17.45
2022-12-14T09:36:25.915Z,16.55
2022-12-14T09:38:58.170Z,17.60
2022-12-14T09:41:34.735Z,17.98
2022-12-14T09:44:18.517Z,16.50
2022-12-14T09:47:13.845Z,15.73
2022-12-14T09:50:07.095Z,17.17
2022-12-14T09:52:41.267Z,15.88
2022-12-14T09:55:38.412Z,15.38
2022-12-14T09:58:13.031Z,15.23
2022-12-14T10:00:56.586Z,14.30
2022-12-14T10:03:23.992Z,12.88
2022-12-14T10:06:06.671Z,12.93
2022-12-14T10:08:54.716Z,11.95
2022-12-14T10:11:54.801Z,13.38
2022-12-14T10:14:52.749Z,13.02
2022-12-14T10:17:20.834Z,13.00
2022-12-14T10:19:56.590Z,14.65
2022-12-14T10:22:37.824Z,15.10
2022-12-14T10:25:18.609Z,14.90
2022-12-14T10:28:10.414Z,15.90
2022-12-14T10:30:42.227Z,15.90
2022-12-14T10:33:31.459Z,16.38
2022-12-14T10:36:05.784Z,18.30
2022-12-14T10:38:39.141Z,17.50
2022-12-14T10:41:19.027Z,17.45
2022-12-14T10:44:05.154Z,16.77
2022-12-14T10:46:53.581Z,18.10
2022-12-14T10:49:36.231Z,19.10
2022-12-14T10:52:14.780Z,18.75
2022-12-14T10:54:50.604Z,20.38
2022-12-14T10:57:23.290Z,18.80
2022-12-14T11:00:05.615Z,20.13
2022-12-14T11:02:40.065Z,19.48
2022-12-14T11:07:58.430Z,22.17
2022-12-14T11:10:28.653Z,23.45
2022-12-14T11:13:16.398Z,22.00
2022-12-14T11:15:46.495Z,21.33
2022-12-14T11:18:16.708Z,22.73
2022-12-14T11:20:57.546Z,20.52
2022-12-14T11:23:28.098Z,22.00
2022-12-14T11:26:00.725Z,21.98
2022-12-14T11:28:36.049Z,23.00
2022-12-14T11:31:05.664Z,20.98
2022-12-14T11:33:40.289Z,22.38
2022-12-14T11:36:09.267Z,21.80
2022-12-14T11:38:36.826Z,21.13
2022-12-14T11:41:11.080Z,23.52
2022-12-14T11:43:40.174Z,22.33
2022-12-14T11:46:07.851Z,21.52
2022-12-14T11:48:38.469Z,22.30
2022-12-14T11:51:11.938Z,22.42
2022-12-14T11:53:39.862Z,22.95
2022-12-14T11:56:14.370Z,23.48
2022-12-14T11:58:52.845Z,21.95
2022-12-14T12:01:26.725Z,21.98
2022-12-14T12:03:58.579Z,22.00
2022-12-14T12:09:37.275Z,21.08
2022-12-14T12:12:04.886Z,21.20
2022-12-14T12:14:38.806Z,21.05
2022-12-14T12:17:20.945Z,19.95
2022-12-14T12:19:51.569Z,19.80
2022-12-14T12:22:21.289Z,21.08
2022-12-14T12:28:24.858Z,21.05
2022-12-14T12:30:56.966Z,21.77
2022-12-14T12:33:37.555Z,22.27
2022-12-14T12:36:05.952Z,22.70
2022-12-14T12:38:49.807Z,21.80
2022-12-14T12:41:21.157Z,21.23
2022-12-14T12:43:54.675Z,21.20
2022-12-14T12:46:33.876Z,21.05
2022-12-14T12:49:05.429Z,21.65
2022-12-14T12:51:43.967Z,21.40
2022-12-14T12:54:18.338Z,19.88
2022-12-14T12:56:55.913Z,18.85
2022-12-14T12:59:34.464Z,19.38
2022-12-14T13:02:18.519Z,20.48
2022-12-14T13:04:52.772Z,19.13
2022-12-14T13:07:42.214Z,20.60
2022-12-14T13:10:22.680Z,20.92
2022-12-14T13:12:54.313Z,20.27
2022-12-14T13:15:27.966Z,19.65
2022-12-14T13:18:49.363Z,19.30
2022-12-14T13:21:33.005Z,20.30
2022-12-14T13:24:01.351Z,23.17
2022-12-14T13:26:57.729Z,20.45
2022-12-14T13:29:50.091Z,23.48
2022-12-14T13:32:49.793Z,20.35
2022-12-14T13:35:51.059Z,22.13
2022-12-14T13:38:38.121Z,21.58
2022-12-14T13:41:11.968Z,22.55
2022-12-14T13:44:01.240Z,20.70
2022-12-14T13:46:29.590Z,22.23
2022-12-14T13:49:02.884Z,21.30
2022-12-14T13:51:34.379Z,24.08
2022-12-14T13:54:06.244Z,21.55
2022-12-14T13:56:39.755Z,21.55
2022-12-14T13:59:30.334Z,20.42
2022-12-14T14:02:00.883Z,20.33
2022-12-14T14:04:30.323Z,21.27
2022-12-14T14:07:24.071Z,20.75
2022-12-14T14:10:38.609Z,20.65
2022-12-14T14:13:30.760Z,24.13
2022-12-14T14:19:17.919Z,21.00
2022-12-14T14:22:22.233Z,21.08
2022-12-14T14:24:52.410Z,19.67
2022-12-14T14:27:23.788Z,21.40
2022-12-14T14:29:52.787Z,20.83
2022-12-14T14:32:40.362Z,20.85
2022-12-14T14:35:28.120Z,25.95
2022-12-14T14:38:03.100Z,23.10
2022-12-14T14:41:15.270Z,20.75
2022-12-14T14:43:28.351Z,20.73
2022-12-14T14:46:02.039Z,21.27
2022-12-14T14:48:53.347Z,20.88
2022-12-14T14:51:28.328Z,22.57
2022-12-14T14:54:56.251Z,21.55
2022-12-14T14:57:35.641Z,21.23
2022-12-14T15:00:06.056Z,22.67
2022-12-14T15:02:41.460Z,19.95
2022-12-14T15:08:22.571Z,19.88
2022-12-14T15:10:50.391Z,21.00
2022-12-14T15:13:28.522Z,20.73
2022-12-14T15:15:56.984Z,19.92
2022-12-14T15:18:27.107Z,20.02
2022-12-14T15:21:06.935Z,19.58
2022-12-14T15:23:49.543Z,19.95
2022-12-14T15:26:25.140Z,19.27
2022-12-14T15:28:58.510Z,20.00
2022-12-14T15:31:40.173Z,20.83
2022-12-14T15:34:15.394Z,20.63
2022-12-14T15:36:44.155Z,20.92
2022-12-14T15:39:44.021Z,21.08
2022-12-14T15:42:18.387Z,22.02
2022-12-14T15:44:54.424Z,21.08
2022-12-14T15:47:28.047Z,21.35
2022-12-14T15:50:20.722Z,20.70
2022-12-14T15:52:49.674Z,20.95
2022-12-14T15:55:36.762Z,21.80
2022-12-14T15:58:17.992Z,20.52
2022-12-14T16:00:48.135Z,19.87
2022-12-14T16:03:30.096Z,20.98
2022-12-14T16:06:00.085Z,22.10
2022-12-14T16:08:30.376Z,23.27
2022-12-14T16:11:01.205Z,21.63
2022-12-14T16:13:34.311Z,22.05
2022-12-14T16:16:09.676Z,24.88
2022-12-14T16:18:46.083Z,22.05
2022-12-14T16:21:29.189Z,25.30
2022-12-14T16:23:58.453Z,23.27
2022-12-14T16:26:29.131Z,28.25
2022-12-14T16:29:21.268Z,24.52
2022-12-14T16:31:49.420Z,22.77
2022-12-14T16:34:20.447Z,25.90
2022-12-14T16:37:22.829Z,23.50
2022-12-14T16:39:45.729Z,23.23
2022-12-14T16:42:20.695Z,22.35
2022-12-14T16:44:48.969Z,22.35
2022-12-14T16:47:26.300Z,22.88
2022-12-14T16:49:56.321Z,23.27
2022-12-14T16:52:35.404Z,21.52
2022-12-14T16:55:20.429Z,25.33
2022-12-14T16:57:47.672Z,29.27
2022-12-14T17:00:36.189Z,27.65
2022-12-14T17:03:19.484Z,21.75
2022-12-14T17:05:53.436Z,23.95
2022-12-14T17:08:21.400Z,19.75
2022-12-14T17:10:48.692Z,19.75
2022-12-14T17:13:16.059Z,19.90
2022-12-14T17:16:01.793Z,18.85
2022-12-14T17:18:40.994Z,19.08
2022-12-14T17:21:17.422Z,19.33
2022-12-14T17:23:46.026Z,19.25
2022-12-14T17:26:25.146Z,19.55
2022-12-14T17:28:53.470Z,20.45
2022-12-14T17:31:25.080Z,19.73
2022-12-14T17:33:54.037Z,19.95
2022-12-14T17:36:21.988Z,19.23
2022-12-14T17:38:49.342Z,19.83
2022-12-14T17:41:25.432Z,23.90
2022-12-14T17:43:57.772Z,22.08
2022-12-14T17:46:25.674Z,22.50
2022-12-14T17:48:53.440Z,21.15
2022-12-14T17:51:29.941Z,19.55
2022-12-14T17:53:59.660Z,20.83
2022-12-14T17:56:28.277Z,19.88
2022-12-14T17:58:55.596Z,20.80
2022-12-14T18:01:25.705Z,20.08
2022-12-14T18:03:53.156Z,21.55
2022-12-14T18:06:20.969Z,21.58
2022-12-14T18:08:51.421Z,24.83
2022-12-14T18:11:22.124Z,24.27
2022-12-14T18:13:50.035Z,20.80
2022-12-14T18:16:20.929Z,20.17
2022-12-14T18:18:49.330Z,20.83
2022-12-14T18:21:28.596Z,19.88
2022-12-14T18:23:56.632Z,19.13
2022-12-14T18:26:24.235Z,20.55
2022-12-14T18:28:54.263Z,21.48
2022-12-14T18:31:24.182Z,20.65
2022-12-14T18:33:51.953Z,20.80
2022-12-14T18:36:22.593Z,21.75
2022-12-14T18:38:51.914Z,22.27
2022-12-14T18:41:24.667Z,21.92
2022-12-14T18:43:54.446Z,22.88
2022-12-14T18:46:22.244Z,21.75
2022-12-14T18:48:49.706Z,22.30
2022-12-14T18:51:23.431Z,25.95
2022-12-14T18:53:51.249Z,22.48
2022-12-14T18:56:18.605Z,25.58
2022-12-14T18:58:46.486Z,32.20
2022-12-14T19:01:16.468Z,24.40
2022-12-14T19:03:45.164Z,23.40
2022-12-14T19:09:04.607Z,22.65
2022-12-14T19:11:34.286Z,23.70
2022-12-14T19:14:02.137Z,34.40
2022-12-14T19:16:29.572Z,23.52
2022-12-14T19:18:57.434Z,23.92
2022-12-14T19:21:29.273Z,22.80
2022-12-14T19:26:23.840Z,22.48
2022-12-14T19:28:51.116Z,24.20
2022-12-14T19:31:18.611Z,24.75
2022-12-14T19:33:45.978Z,23.58
2022-12-14T19:36:13.619Z,23.15
2022-12-14T19:38:41.950Z,23.90
2022-12-14T19:41:13.645Z,24.77
2022-12-14T19:43:41.363Z,25.13
2022-12-14T19:46:12.135Z,25.73
2022-12-14T19:48:39.898Z,25.88
2022-12-14T19:51:12.599Z,25.08
2022-12-14T19:53:42.551Z,27.70
2022-12-14T19:56:10.703Z,54.05
2022-12-14T19:58:38.027Z,29.58
2022-12-14T20:01:10.688Z,26.98
2022-12-14T20:03:39.347Z,28.92
2022-12-14T20:06:07.898Z,28.20
2022-12-14T20:08:36.303Z,34.47
2022-12-14T20:11:06.019Z,28.80
2022-12-14T20:13:34.245Z,28.30
2022-12-14T20:16:02.280Z,30.38
2022-12-14T20:18:31.497Z,29.95
2022-12-14T20:21:07.737Z,29.65
2022-12-14T20:23:36.442Z,27.45
2022-12-14T20:26:10.860Z,29.55
2022-12-14T20:28:38.359Z,27.80
2022-12-14T20:31:07.413Z,27.27
2022-12-14T20:33:35.434Z,29.65
2022-12-14T20:36:03.692Z,30.42
2022-12-14T20:38:31.540Z,29.13
2022-12-14T20:41:11.515Z,30.70
2022-12-14T20:43:44.145Z,30.48
2022-12-14T20:46:25.115Z,30.45
2022-12-14T20:48:53.843Z,30.73
2022-12-14T20:51:21.589Z,31.13
2022-12-14T20:53:49.245Z,33.22
2022-12-14T20:56:16.784Z,33.17
2022-12-14T20:58:47.175Z,36.20
2022-12-14T21:01:16.363Z,39.92
2022-12-14T21:03:46.840Z,38.35
2022-12-14T21:06:16.203Z,33.40
2022-12-14T21:09:04.927Z,32.40
2022-12-14T21:11:59.633Z,34.83
2022-12-14T21:14:33.886Z,31.63
2022-12-14T21:17:02.227Z,33.95
2022-12-14T21:19:30.319Z,33.42
2022-12-14T21:21:57.839Z,33.53
2022-12-14T21:25:00.358Z,34.60
2022-12-14T21:27:19.453Z,32.58
2022-12-14T21:29:47.848Z,35.05
2022-12-14T21:32:16.406Z,34.10
2022-12-14T21:34:44.346Z,33.75
2022-12-14T21:37:12.623Z,32.50
2022-12-14T21:39:39.898Z,32.92
2022-12-14T21:42:10.541Z,33.00
2022-12-14T21:44:38.290Z,32.03
2022-12-14T21:47:09.134Z,33.70
2022-12-14T21:49:38.371Z,32.78
2022-12-14T21:52:07.631Z,33.35
2022-12-14T21:54:35.586Z,33.42
2022-12-14T21:57:22.092Z,31.77
2022-12-14T21:59:50.054Z,33.50
2022-12-14T22:02:24.592Z,33.88
2022-12-14T22:04:56.350Z,33.25
2022-12-14T22:07:26.499Z,34.30
2022-12-14T22:09:53.851Z,32.13
2022-12-14T22:12:21.549Z,33.65
2022-12-14T22:14:50.996Z,32.10
2022-12-14T22:17:19.943Z,34.42
2022-12-14T22:19:49.077Z,33.20
2022-12-14T22:22:20.531Z,32.08
2022-12-14T22:24:49.938Z,34.90
2022-12-14T22:27:17.659Z,32.58
2022-12-14T22:29:45.411Z,33.83
2022-12-14T22:32:13.109Z,34.53
2022-12-14T22:34:40.714Z,33.85
2022-12-14T22:37:08.992Z,34.22
2022-12-14T22:39:36.944Z,35.40
2022-12-14T22:42:04.500Z,34.45
2022-12-14T22:44:31.705Z,33.22
